Terminal Aerodrome Forecast
Issued by NWS

Home | Current Version | Previous Version | Text Only | Print | Product List | Glossary On
Versions: 1 2 3 4 5 6 7 8 9 10 11 12 13 14 15 16 17 18 19 20 21
000
FTUS42 KFFC 281359 AAA
TAFFTY
TAF AMD
KFTY 281359Z 2814/2912 32010G18KT P6SM SCT040
     FM282000 32010KT P6SM SKC
     FM290300 35005KT P6SM SKC=

USA.gov is the U.S. government's official web portal to all federal, state and local government web resources and services.